Time;durP1;ratioP1;P1;durP2;ratioP2;P2;SDS_P1;SDS_P2;PMS_P1;PMS_P2;Temp;Humidity;BMP_temperature;BMP_pressure;BME280_temperature;BME280_humidity;BME280_pressure;Samples;Min_cycle;Max_cycle;Signal;HPM_P1;HPM_P2
2023/04/14 00:04:36;;;;;;;4.57;2.50;;;7.10;99.90;;;;;;10433181;28;20586;-73
2023/04/14 00:09:37;;;;;;;5.53;2.73;;;7.20;99.90;;;;;;10434232;28;20342;-73
2023/04/14 00:14:37;;;;;;;4.50;2.53;;;7.10;99.90;;;;;;10436513;28;20223;-68
2023/04/14 00:19:38;;;;;;;5.37;2.63;;;7.10;99.90;;;;;;10430981;28;20269;-71
2023/04/14 00:24:42;;;;;;;4.90;2.57;;;7.00;99.90;;;;;;10428855;28;20273;-70
2023/04/14 00:29:43;;;;;;;3.90;2.57;;;7.00;99.90;;;;;;10421496;28;20796;-70
2023/04/14 00:34:43;;;;;;;3.67;2.60;;;6.80;99.90;;;;;;10428511;28;20244;-70
2023/04/14 00:39:44;;;;;;;5.80;2.70;;;6.70;99.90;;;;;;10424178;28;20624;-70
2023/04/14 00:44:46;;;;;;;3.40;2.37;;;6.50;99.90;;;;;;10428497;28;20236;-70
2023/04/14 00:49:47;;;;;;;5.10;2.50;;;6.40;99.90;;;;;;10429499;28;20323;-69
2023/04/14 00:54:48;;;;;;;3.87;2.70;;;6.30;99.90;;;;;;10429529;28;20247;-68
2023/04/14 00:59:49;;;;;;;6.27;2.70;;;6.10;99.90;;;;;;10427017;28;20309;-71
2023/04/14 01:04:53;;;;;;;3.73;2.50;;;6.00;99.90;;;;;;10427239;28;20314;-71
2023/04/14 01:09:56;;;;;;;5.23;2.60;;;5.80;99.90;;;;;;10422052;28;20251;-70
2023/04/14 01:15:11;;;;;;;5.37;2.40;;;5.70;99.90;;;;;;10427951;28;20736;-70
2023/04/14 01:20:11;;;;;;;4.47;2.50;;;5.70;99.90;;;;;;10421619;28;20705;-70
2023/04/14 01:25:40;;;;;;;6.63;2.70;;;5.60;99.90;;;;;;10420775;28;20195;-69
2023/04/14 01:31:16;;;;;;;3.90;2.70;;;5.50;99.90;;;;;;10418490;28;20330;-69
2023/04/14 01:36:28;;;;;;;6.07;2.87;;;5.50;99.90;;;;;;10409623;28;20711;-68
2023/04/14 01:41:30;;;;;;;4.37;2.80;;;5.40;99.90;;;;;;10424736;28;20222;-69
2023/04/14 01:46:35;;;;;;;5.33;2.80;;;5.40;99.90;;;;;;10424805;28;20220;-69
2023/04/14 01:51:39;;;;;;;5.23;2.50;;;5.40;99.90;;;;;;10427059;28;21454;-68
2023/04/14 01:56:42;;;;;;;4.13;2.47;;;5.30;99.90;;;;;;10417678;28;20238;-68
2023/04/14 02:01:44;;;;;;;3.70;2.27;;;5.20;99.90;;;;;;10427813;28;20719;-72
2023/04/14 02:06:47;;;;;;;6.20;2.73;;;5.20;99.90;;;;;;10422706;28;20232;-70
2023/04/14 02:11:50;;;;;;;4.53;2.43;;;5.10;99.90;;;;;;10422775;28;20247;-70
2023/04/14 02:16:57;;;;;;;4.10;2.47;;;5.10;99.90;;;;;;10427647;28;20230;-72
2023/04/14 02:21:59;;;;;;;6.23;3.23;;;5.00;99.90;;;;;;10423027;28;20251;-70
2023/04/14 02:27:25;;;;;;;4.47;2.57;;;4.90;99.90;;;;;;10422777;28;20735;-70
2023/04/14 02:32:30;;;;;;;6.10;3.13;;;4.90;99.90;;;;;;10401869;28;20231;-70
2023/04/14 02:37:38;;;;;;;4.80;2.80;;;4.80;99.90;;;;;;10421226;28;20226;-70
2023/04/14 02:42:42;;;;;;;4.23;3.23;;;4.80;99.90;;;;;;10424649;28;20696;-71
2023/04/14 02:47:46;;;;;;;5.63;3.43;;;4.80;99.90;;;;;;10430640;28;20228;-72
2023/04/14 02:52:50;;;;;;;5.53;3.17;;;4.80;99.90;;;;;;10433044;28;20242;-71
2023/04/14 02:57:52;;;;;;;6.57;3.10;;;4.70;99.90;;;;;;10432494;28;20251;-71
2023/04/14 03:02:54;;;;;;;5.40;3.30;;;4.60;99.90;;;;;;10433604;28;20224;-70
2023/04/14 03:07:55;;;;;;;5.50;3.17;;;4.60;99.90;;;;;;10426979;28;20262;-70
2023/04/14 03:12:59;;;;;;;4.40;3.00;;;4.50;99.90;;;;;;10430487;28;20310;-70
2023/04/14 03:18:00;;;;;;;6.27;3.20;;;4.50;99.90;;;;;;10424828;28;20256;-70
2023/04/14 03:23:05;;;;;;;7.33;3.27;;;4.40;99.90;;;;;;10432390;28;20226;-70
2023/04/14 03:28:14;;;;;;;5.37;3.27;;;4.40;99.90;;;;;;10427615;28;20609;-70
2023/04/14 03:33:19;;;;;;;4.80;3.20;;;4.40;99.90;;;;;;10425890;28;20699;-68
2023/04/14 03:38:20;;;;;;;7.10;4.23;;;4.40;99.90;;;;;;10404835;28;20699;-69
2023/04/14 03:43:22;;;;;;;8.60;4.50;;;4.30;99.90;;;;;;10425644;28;20232;-69
2023/04/14 03:48:28;;;;;;;8.37;5.53;;;4.30;99.90;;;;;;10434279;28;20684;-70
2023/04/14 03:53:33;;;;;;;6.60;4.90;;;4.30;99.90;;;;;;10428619;28;20235;-68
2023/04/14 03:58:35;;;;;;;10.00;5.83;;;4.30;99.90;;;;;;10428550;28;20235;-68
2023/04/14 04:03:38;;;;;;;7.77;6.90;;;4.30;99.90;;;;;;10423230;28;20251;-71
2023/04/14 04:08:40;;;;;;;7.87;7.07;;;4.30;99.90;;;;;;10428933;28;20228;-70
2023/04/14 04:13:41;;;;;;;8.67;6.77;;;4.20;99.90;;;;;;10421430;28;20317;-68
2023/04/14 04:18:45;;;;;;;11.30;7.67;;;4.20;99.90;;;;;;10427370;28;20418;-71
2023/04/14 04:23:52;;;;;;;10.83;8.07;;;4.20;99.90;;;;;;10430959;28;20307;-69
2023/04/14 04:28:56;;;;;;;10.83;8.50;;;4.20;99.90;;;;;;10429571;28;20237;-68
2023/04/14 04:33:57;;;;;;;10.40;7.97;;;4.30;99.90;;;;;;10431255;28;20232;-70
2023/04/14 04:38:58;;;;;;;10.90;8.50;;;4.30;99.90;;;;;;10429140;28;20216;-70
2023/04/14 04:43:59;;;;;;;8.87;7.57;;;4.30;99.90;;;;;;10415885;28;20215;-72
2023/04/14 04:48:59;;;;;;;11.07;8.27;;;4.30;99.90;;;;;;10427519;28;20247;-71
2023/04/14 04:54:00;;;;;;;11.10;8.33;;;4.30;99.90;;;;;;10425705;28;20627;-71
2023/04/14 04:59:01;;;;;;;11.67;9.03;;;4.40;99.90;;;;;;10429991;28;20230;-71
2023/04/14 05:04:02;;;;;;;12.03;7.83;;;4.40;99.90;;;;;;10425790;28;20223;-71
2023/04/14 05:09:03;;;;;;;11.37;8.23;;;4.50;99.90;;;;;;10416741;28;20220;-71
2023/04/14 05:14:04;;;;;;;10.80;7.33;;;4.70;99.90;;;;;;10420857;28;20616;-70
2023/04/14 05:19:04;;;;;;;9.23;7.57;;;4.90;99.90;;;;;;10413086;28;20224;-70
2023/04/14 05:24:07;;;;;;;12.93;8.87;;;5.20;99.90;;;;;;10408853;28;20280;-71
2023/04/14 05:29:08;;;;;;;10.10;6.47;;;5.20;99.90;;;;;;10430411;28;20314;-72
2023/04/14 05:34:09;;;;;;;12.07;6.27;;;5.40;99.90;;;;;;10424476;28;20236;-71
2023/04/14 05:39:10;;;;;;;8.70;6.13;;;5.60;99.90;;;;;;10428636;28;20220;-76
2023/04/14 05:44:14;;;;;;;8.23;5.67;;;5.90;99.90;;;;;;10413516;28;20216;-73
2023/04/14 05:49:14;;;;;;;6.60;4.93;;;6.20;99.90;;;;;;10423727;28;20224;-75
2023/04/14 05:54:15;;;;;;;6.53;4.53;;;6.60;99.90;;;;;;10429635;28;20231;-74
2023/04/14 05:59:16;;;;;;;5.87;4.60;;;6.90;99.90;;;;;;10420051;28;20671;-73
2023/04/14 06:04:17;;;;;;;9.23;4.90;;;7.20;99.90;;;;;;10422701;28;20629;-73
2023/04/14 06:09:18;;;;;;;7.70;4.47;;;7.60;99.90;;;;;;10429852;28;20215;-74
2023/04/14 06:14:19;;;;;;;6.47;4.07;;;8.10;99.90;;;;;;10421032;28;20224;-74
2023/04/14 06:19:20;;;;;;;5.73;4.30;;;8.60;99.90;;;;;;10406185;28;20307;-73
2023/04/14 06:24:21;;;;;;;5.70;4.10;;;9.30;99.90;;;;;;10422873;28;20219;-73
2023/04/14 06:29:22;;;;;;;8.23;4.10;;;10.10;99.90;;;;;;10434658;28;20228;-74
2023/04/14 06:34:23;;;;;;;6.90;4.67;;;10.60;99.90;;;;;;10428108;28;20220;-74
2023/04/14 06:39:24;;;;;;;8.33;4.60;;;10.90;99.90;;;;;;10433722;28;20248;-73
2023/04/14 06:44:24;;;;;;;9.03;5.80;;;11.00;99.90;;;;;;10429689;28;20744;-73
2023/04/14 06:49:25;;;;;;;10.50;6.00;;;11.00;99.90;;;;;;10426612;28;20218;-73
2023/04/14 06:54:26;;;;;;;10.20;7.40;;;11.40;99.90;;;;;;10426014;28;20235;-73
2023/04/14 06:59:28;;;;;;;11.30;6.80;;;12.00;99.90;;;;;;10435790;28;20590;-73
2023/04/14 07:04:29;;;;;;;12.93;7.80;;;12.00;99.90;;;;;;10427364;28;20226;-73
2023/04/14 07:09:29;;;;;;;9.50;6.77;;;12.10;99.90;;;;;;10429121;28;20222;-72
2023/04/14 07:14:31;;;;;;;11.30;6.30;;;12.80;99.90;;;;;;10428210;28;20217;-72
2023/04/14 07:19:31;;;;;;;10.67;6.27;;;13.60;99.90;;;;;;10414791;28;20646;-73
2023/04/14 07:24:32;;;;;;;10.53;6.07;;;14.20;99.90;;;;;;10420139;28;20296;-72
2023/04/14 07:29:33;;;;;;;7.90;4.97;;;14.60;99.90;;;;;;10421497;28;20220;-74
2023/04/14 07:34:34;;;;;;;8.83;4.73;;;14.30;99.90;;;;;;10427257;28;20218;-70
2023/04/14 07:39:35;;;;;;;5.87;3.47;;;16.80;99.90;;;;;;10422792;28;20231;-74
2023/04/14 07:44:36;;;;;;;5.00;3.33;;;20.30;97.20;;;;;;10416232;28;20631;-75
2023/04/14 07:49:36;;;;;;;5.50;3.37;;;23.00;77.40;;;;;;10418229;28;20230;-74
2023/04/14 07:54:37;;;;;;;6.53;3.63;;;24.80;59.70;;;;;;10425642;28;20315;-73
2023/04/14 07:59:41;;;;;;;8.47;3.33;;;26.20;53.70;;;;;;10430903;28;20687;-71
2023/04/14 08:04:42;;;;;;;6.73;3.73;;;27.00;50.80;;;;;;10426901;28;20216;-71
2023/04/14 08:09:42;;;;;;;6.60;3.93;;;27.60;47.00;;;;;;10413972;28;20228;-71
2023/04/14 08:14:43;;;;;;;5.63;3.83;;;28.70;43.60;;;;;;10428962;28;20362;-74
2023/04/14 08:19:45;;;;;;;6.43;3.90;;;29.50;42.20;;;;;;10430695;28;20220;-74
2023/04/14 08:24:46;;;;;;;8.83;5.27;;;30.20;41.00;;;;;;10429399;28;20230;-73
2023/04/14 08:29:49;;;;;;;7.33;5.30;;;28.40;40.70;;;;;;10426511;28;20563;-75
2023/04/14 08:34:50;;;;;;;8.90;5.57;;;27.10;42.80;;;;;;10424246;28;20228;-72
2023/04/14 08:39:51;;;;;;;7.73;4.67;;;28.40;42.70;;;;;;10421086;28;20212;-75
2023/04/14 08:44:52;;;;;;;9.27;4.53;;;29.60;40.40;;;;;;10420051;28;20219;-78
2023/04/14 08:50:21;;;;;;;8.53;4.17;;;31.10;38.70;;;;;;10403793;28;20348;-73
2023/04/14 08:55:24;;;;;;;6.00;3.63;;;30.70;36.70;;;;;;10403705;28;20662;-71
2023/04/14 09:00:25;;;;;;;6.30;3.80;;;31.40;36.90;;;;;;10427968;28;20223;-71
2023/04/14 09:05:26;;;;;;;5.77;3.93;;;30.20;37.70;;;;;;10416733;28;20221;-70
2023/04/14 09:10:29;;;;;;;8.30;3.93;;;31.10;36.90;;;;;;10431309;28;20231;-70
2023/04/14 09:15:30;;;;;;;7.80;2.80;;;30.60;35.10;;;;;;10432192;28;20222;-70
2023/04/14 09:20:33;;;;;;;5.60;2.87;;;31.70;34.90;;;;;;10416671;28;20213;-72
2023/04/14 09:25:35;;;;;;;5.33;3.17;;;33.00;34.50;;;;;;10427927;28;20580;-72
2023/04/14 09:30:36;;;;;;;6.83;3.83;;;33.70;32.30;;;;;;10412477;28;20738;-71
2023/04/14 09:35:47;;;;;;;7.57;3.97;;;34.00;31.90;;;;;;10420363;28;20225;-77
2023/04/14 09:40:48;;;;;;;7.07;3.97;;;34.90;30.90;;;;;;10412683;28;20236;-72
2023/04/14 09:45:49;;;;;;;6.80;3.03;;;34.70;30.10;;;;;;10405515;28;20271;-71
2023/04/14 09:51:11;;;;;;;7.27;4.00;;;35.10;29.90;;;;;;10416885;28;20213;-72
2023/04/14 09:56:12;;;;;;;7.13;4.23;;;36.10;29.50;;;;;;10411671;28;20733;-71
2023/04/14 10:01:15;;;;;;;6.07;3.80;;;35.50;29.10;;;;;;10427973;28;20234;-71
2023/04/14 10:06:21;;;;;;;8.60;4.83;;;35.20;29.60;;;;;;10411988;28;20267;-70
2023/04/14 10:11:24;;;;;;;8.80;4.20;;;33.50;30.10;;;;;;10415695;28;20224;-70
2023/04/14 10:16:26;;;;;;;8.03;4.60;;;33.10;30.40;;;;;;10427780;28;20300;-71
2023/04/14 10:21:26;;;;;;;9.37;4.97;;;29.20;33.40;;;;;;10430341;28;20229;-70
2023/04/14 10:26:28;;;;;;;7.20;4.13;;;26.00;40.40;;;;;;10430398;28;20772;-70
2023/04/14 10:31:37;;;;;;;8.80;4.50;;;27.10;39.20;;;;;;10423588;28;20245;-71
2023/04/14 10:36:38;;;;;;;8.77;4.87;;;28.30;35.60;;;;;;10418314;28;20220;-69
2023/04/14 10:41:50;;;;;;;8.20;4.50;;;26.10;39.80;;;;;;10421503;28;20307;-74
2023/04/14 10:46:52;;;;;;;6.87;3.70;;;24.30;43.40;;;;;;10417972;28;20715;-70
2023/04/14 10:51:53;;;;;;;10.67;5.00;;;23.40;47.10;;;;;;10417300;28;20217;-70
2023/04/14 10:57:14;;;;;;;8.83;4.80;;;23.50;44.50;;;;;;10416459;28;20220;-69
2023/04/14 11:02:24;;;;;;;7.70;3.77;;;22.30;47.30;;;;;;10416438;28;20307;-69
2023/04/14 11:07:27;;;;;;;9.53;3.90;;;24.10;46.30;;;;;;10405549;28;20267;-71
2023/04/14 11:12:28;;;;;;;6.60;3.10;;;25.60;42.80;;;;;;10421066;28;20405;-69
2023/04/14 11:17:31;;;;;;;7.93;3.57;;;24.20;43.10;;;;;;10421157;28;20410;-69
2023/04/14 11:22:43;;;;;;;6.93;3.57;;;22.60;46.30;;;;;;10416003;28;20280;-68
2023/04/14 11:27:46;;;;;;;6.47;3.10;;;21.30;49.50;;;;;;10420876;28;20228;-70
2023/04/14 11:32:52;;;;;;;5.53;3.10;;;20.70;50.50;;;;;;10427337;28;20224;-69
2023/04/14 11:37:57;;;;;;;5.63;2.63;;;20.20;52.40;;;;;;10406282;28;20232;-69
2023/04/14 11:42:59;;;;;;;6.47;2.20;;;19.50;53.00;;;;;;10426554;28;20275;-70
2023/04/14 11:48:02;;;;;;;7.20;2.50;;;19.50;54.30;;;;;;10431606;28;20255;-70
2023/04/14 11:53:08;;;;;;;6.37;2.40;;;19.60;53.20;;;;;;10419322;28;20698;-71
2023/04/14 11:58:09;;;;;;;5.83;2.00;;;19.40;52.20;;;;;;10421532;28;20712;-71
2023/04/14 12:03:10;;;;;;;6.70;2.40;;;19.00;53.10;;;;;;10425184;28;20235;-71
2023/04/14 12:08:11;;;;;;;6.00;2.50;;;18.80;51.50;;;;;;10432603;28;20215;-70
2023/04/14 12:13:12;;;;;;;5.23;2.50;;;18.80;51.50;;;;;;10418054;28;20797;-71
2023/04/14 12:18:16;;;;;;;8.37;2.53;;;18.70;51.10;;;;;;10432202;28;20227;-70
2023/04/14 12:23:16;;;;;;;5.97;2.43;;;18.40;51.00;;;;;;10425188;28;20570;-71
2023/04/14 12:28:27;;;;;;;8.27;2.50;;;18.40;51.80;;;;;;10431208;28;20230;-71
2023/04/14 12:33:30;;;;;;;5.40;2.03;;;18.50;52.40;;;;;;10421548;28;20302;-70
2023/04/14 12:38:31;;;;;;;4.00;1.80;;;18.60;49.90;;;;;;10417635;28;20657;-71
2023/04/14 12:43:34;;;;;;;7.03;2.63;;;18.50;50.60;;;;;;10429421;28;20231;-70
2023/04/14 12:48:47;;;;;;;6.00;2.33;;;18.50;50.70;;;;;;10423385;28;20239;-69
2023/04/14 12:53:48;;;;;;;8.47;2.00;;;18.50;49.80;;;;;;10419052;28;20240;-69
2023/04/14 12:58:54;;;;;;;6.03;1.97;;;18.70;49.00;;;;;;10424665;28;20223;-69
2023/04/14 13:03:54;;;;;;;5.93;1.70;;;18.90;49.70;;;;;;10424918;28;20717;-69
2023/04/14 13:08:55;;;;;;;4.37;1.60;;;18.80;49.20;;;;;;10428273;28;20215;-69
2023/04/14 13:13:56;;;;;;;5.73;2.17;;;18.80;49.70;;;;;;10426080;28;20724;-69
2023/04/14 13:18:57;;;;;;;5.33;2.17;;;18.80;48.70;;;;;;10435137;28;20627;-69
2023/04/14 13:23:58;;;;;;;8.93;2.10;;;18.30;49.60;;;;;;10419275;28;20294;-69
2023/04/14 13:29:01;;;;;;;6.90;1.70;;;17.90;50.30;;;;;;10419121;28;20215;-69
2023/04/14 13:34:02;;;;;;;5.07;1.70;;;17.60;50.80;;;;;;10422756;28;20231;-70
2023/04/14 13:39:03;;;;;;;8.33;2.07;;;17.40;51.10;;;;;;10424314;28;20228;-70
2023/04/14 13:44:03;;;;;;;4.67;1.80;;;17.40;51.90;;;;;;10419605;28;20677;-70
2023/04/14 13:49:04;;;;;;;6.77;1.40;;;17.80;49.70;;;;;;10433994;28;20237;-71
2023/04/14 13:54:05;;;;;;;7.00;2.10;;;17.90;49.10;;;;;;10412832;28;20224;-71
2023/04/14 13:59:06;;;;;;;10.73;5.57;;;18.00;48.30;;;;;;10426543;28;20248;-70
2023/04/14 14:04:07;;;;;;;4.83;1.60;;;18.10;47.90;;;;;;10423589;28;20238;-70
2023/04/14 14:09:08;;;;;;;5.87;1.70;;;18.20;48.80;;;;;;10423517;28;20230;-71
2023/04/14 14:14:09;;;;;;;3.93;1.50;;;18.30;46.20;;;;;;10422228;28;20240;-71
2023/04/14 14:19:12;;;;;;;7.40;2.30;;;18.30;46.10;;;;;;10427903;28;20227;-71
2023/04/14 14:24:13;;;;;;;5.87;1.67;;;18.30;48.00;;;;;;10421408;28;20734;-71
2023/04/14 14:29:13;;;;;;;5.13;1.33;;;18.20;47.10;;;;;;10425705;28;20227;-69
2023/04/14 14:34:14;;;;;;;5.67;2.00;;;18.10;48.00;;;;;;10428650;28;20596;-70
2023/04/14 14:39:15;;;;;;;4.00;1.43;;;17.80;48.50;;;;;;10419829;28;20221;-69
2023/04/14 14:44:19;;;;;;;4.83;1.70;;;17.70;50.00;;;;;;10415279;28;20243;-70
2023/04/14 14:49:20;;;;;;;6.43;2.03;;;17.70;49.80;;;;;;10409725;28;20219;-71
2023/04/14 14:54:20;;;;;;;5.57;1.63;;;17.90;48.60;;;;;;10420652;28;20235;-71
2023/04/14 14:59:21;;;;;;;5.87;2.20;;;17.90;49.30;;;;;;10435321;28;20237;-70
2023/04/14 15:04:22;;;;;;;5.40;1.77;;;17.70;48.00;;;;;;10427183;28;20238;-71
2023/04/14 15:09:23;;;;;;;6.67;2.27;;;17.40;49.00;;;;;;10431916;28;20896;-73
2023/04/14 15:14:24;;;;;;;3.50;1.50;;;17.30;48.10;;;;;;10435574;28;20223;-74
2023/04/14 15:19:25;;;;;;;5.60;1.43;;;17.00;48.50;;;;;;10431373;28;20230;-75
2023/04/14 15:24:26;;;;;;;3.73;1.57;;;16.90;49.40;;;;;;10428724;28;20316;-73
2023/04/14 15:29:27;;;;;;;3.30;1.70;;;16.80;49.00;;;;;;10409427;28;20223;-74
2023/04/14 15:34:27;;;;;;;3.67;1.60;;;17.00;49.30;;;;;;10432030;28;20658;-77
2023/04/14 15:39:28;;;;;;;5.77;1.60;;;17.10;49.00;;;;;;10431612;28;20249;-75
2023/04/14 15:44:29;;;;;;;4.13;1.57;;;17.20;48.80;;;;;;10423611;28;20229;-75
2023/04/14 15:49:30;;;;;;;4.43;1.23;;;17.40;48.30;;;;;;10416122;28;20231;-75
2023/04/14 15:54:32;;;;;;;4.50;1.67;;;17.40;47.50;;;;;;10416431;28;20231;-75
2023/04/14 15:59:32;;;;;;;3.97;1.40;;;17.30;47.70;;;;;;10423111;28;20265;-75
2023/04/14 16:04:33;;;;;;;4.43;1.60;;;17.20;48.40;;;;;;10421018;28;20628;-75
2023/04/14 16:09:35;;;;;;;5.80;1.97;;;17.20;47.90;;;;;;10418796;28;20222;-75
2023/04/14 16:14:36;;;;;;;4.73;1.60;;;17.20;47.60;;;;;;10431950;28;20279;-74
2023/04/14 16:19:37;;;;;;;3.60;1.20;;;17.20;48.00;;;;;;10428081;28;20653;-74
2023/04/14 16:24:38;;;;;;;4.27;1.03;;;17.40;47.50;;;;;;10431254;28;20218;-74
2023/04/14 16:29:40;;;;;;;3.63;1.23;;;17.30;47.20;;;;;;10424283;28;20214;-73
2023/04/14 16:34:40;;;;;;;3.80;1.20;;;17.30;46.90;;;;;;10421457;28;20219;-74
2023/04/14 16:39:41;;;;;;;4.83;1.30;;;17.20;47.70;;;;;;10430199;28;20643;-74
2023/04/14 16:44:41;;;;;;;4.90;1.13;;;17.00;46.70;;;;;;10421023;28;20221;-73
2023/04/14 16:49:42;;;;;;;6.77;2.00;;;16.80;47.50;;;;;;10428091;28;20297;-75
2023/04/14 16:54:43;;;;;;;2.30;1.10;;;16.70;48.40;;;;;;10416086;28;20247;-75
2023/04/14 16:59:44;;;;;;;3.27;1.47;;;16.70;48.70;;;;;;10427794;28;20231;-74
2023/04/14 17:04:45;;;;;;;6.27;1.60;;;16.70;48.70;;;;;;10431225;28;20219;-75
2023/04/14 17:09:46;;;;;;;3.63;1.33;;;16.70;48.10;;;;;;10420211;28;20219;-74
2023/04/14 17:14:46;;;;;;;4.70;1.33;;;16.60;47.40;;;;;;10407330;28;20533;-74
2023/04/14 17:19:48;;;;;;;3.70;1.33;;;16.50;48.50;;;;;;10418427;28;20857;-76
2023/04/14 17:24:50;;;;;;;3.87;1.10;;;16.10;48.50;;;;;;10422372;28;20213;-74
2023/04/14 17:29:50;;;;;;;3.37;1.47;;;15.80;49.30;;;;;;10427251;28;20218;-75
2023/04/14 17:34:51;;;;;;;2.23;1.17;;;15.60;50.00;;;;;;10416502;28;20703;-75
2023/04/14 17:39:52;;;;;;;2.37;1.00;;;15.20;50.60;;;;;;10422999;28;20213;-76
2023/04/14 17:44:53;;;;;;;5.67;1.37;;;15.00;51.40;;;;;;10418188;28;20249;-75
2023/04/14 17:49:53;;;;;;;4.23;1.37;;;14.80;51.30;;;;;;10418233;28;20248;-76
2023/04/14 17:54:54;;;;;;;4.03;1.33;;;14.60;52.00;;;;;;10427834;28;20312;-76
2023/04/14 17:59:57;;;;;;;2.47;1.20;;;14.20;53.30;;;;;;10423201;28;20216;-76
2023/04/14 18:04:58;;;;;;;3.17;1.33;;;14.00;54.10;;;;;;10424011;28;20239;-75
2023/04/14 18:09:58;;;;;;;2.37;1.33;;;13.70;55.40;;;;;;10426707;28;20586;-75
2023/04/14 18:14:59;;;;;;;4.00;1.30;;;13.40;56.10;;;;;;10424597;28;20216;-76
2023/04/14 18:20:00;;;;;;;2.60;1.40;;;13.20;57.90;;;;;;10429989;28;20228;-72
2023/04/14 18:25:00;;;;;;;1.90;1.10;;;12.90;59.00;;;;;;10431935;28;20212;-72
2023/04/14 18:30:01;;;;;;;3.47;1.43;;;12.70;59.70;;;;;;10435467;28;20262;-69
2023/04/14 18:35:02;;;;;;;3.00;1.43;;;12.50;61.40;;;;;;10432046;28;20315;-72
2023/04/14 18:40:03;;;;;;;4.47;1.70;;;12.30;63.80;;;;;;10433688;28;20224;-72
2023/04/14 18:45:04;;;;;;;2.70;1.50;;;12.20;64.40;;;;;;10424080;28;20487;-72
2023/04/14 18:50:08;;;;;;;5.43;1.90;;;12.10;63.20;;;;;;10433991;28;20307;-72
2023/04/14 18:55:08;;;;;;;4.07;1.43;;;11.90;66.00;;;;;;10429382;28;20201;-71
2023/04/14 19:00:12;;;;;;;5.53;1.63;;;11.70;66.40;;;;;;10433460;28;20222;-72
2023/04/14 19:05:14;;;;;;;3.10;1.30;;;11.60;64.60;;;;;;10427560;28;20243;-73
2023/04/14 19:10:15;;;;;;;4.03;1.63;;;11.50;66.20;;;;;;10429177;28;20578;-72
2023/04/14 19:15:15;;;;;;;3.23;1.60;;;11.40;64.10;;;;;;10422551;28;20187;-73
2023/04/14 19:20:16;;;;;;;3.70;1.63;;;11.40;65.00;;;;;;10428096;28;20246;-74
2023/04/14 19:25:17;;;;;;;5.83;1.70;;;11.30;66.50;;;;;;10433017;28;20180;-74
2023/04/14 19:30:19;;;;;;;4.27;2.07;;;11.20;69.60;;;;;;10397928;28;20197;-75
2023/04/14 19:35:21;;;;;;;4.37;1.93;;;11.20;73.50;;;;;;10397822;28;20268;-75
2023/04/14 19:40:23;;;;;;;5.70;2.20;;;11.10;73.10;;;;;;10405144;28;20279;-75
2023/04/14 19:45:23;;;;;;;6.83;2.33;;;11.00;74.40;;;;;;10422122;28;20233;-77
2023/04/14 19:50:24;;;;;;;7.57;2.97;;;10.90;76.20;;;;;;10413117;28;20259;-78
2023/04/14 19:55:25;;;;;;;5.30;2.83;;;10.80;74.30;;;;;;10397924;28;20749;-77
2023/04/14 20:00:26;;;;;;;4.97;2.70;;;10.70;75.90;;;;;;10397100;28;20570;-77
2023/04/14 20:05:27;;;;;;;6.97;3.00;;;10.70;77.50;;;;;;10395268;28;20243;-78
2023/04/14 20:10:28;;;;;;;7.10;3.07;;;10.60;77.90;;;;;;10391654;28;20287;-75
2023/04/14 20:15:29;;;;;;;9.57;3.10;;;10.50;77.10;;;;;;10395516;28;20241;-75
2023/04/14 20:20:29;;;;;;;6.20;3.13;;;10.40;76.00;;;;;;10393792;28;20789;-77
2023/04/14 20:25:30;;;;;;;7.67;3.83;;;10.30;75.40;;;;;;10405267;28;20212;-73
2023/04/14 20:30:31;;;;;;;8.80;4.13;;;10.40;76.10;;;;;;10393292;28;20803;-76
2023/04/14 20:35:38;;;;;;;10.43;4.87;;;10.40;75.80;;;;;;10392056;28;20290;-76
2023/04/14 20:40:38;;;;;;;8.13;4.20;;;10.40;75.70;;;;;;10393659;28;20240;-77
2023/04/14 20:45:39;;;;;;;8.70;3.50;;;10.40;75.20;;;;;;10404359;28;20319;-75
2023/04/14 20:50:40;;;;;;;6.83;3.10;;;10.40;74.80;;;;;;10424886;28;20223;-77
2023/04/14 20:55:40;;;;;;;5.87;3.20;;;10.40;74.60;;;;;;10427585;28;20251;-75
2023/04/14 21:00:44;;;;;;;5.50;2.73;;;10.50;74.50;;;;;;10420944;28;20239;-75
2023/04/14 21:05:45;;;;;;;6.07;2.60;;;10.50;74.10;;;;;;10423396;28;20212;-75
2023/04/14 21:10:45;;;;;;;6.77;3.00;;;10.40;74.10;;;;;;10427691;28;20220;-74
2023/04/14 21:15:46;;;;;;;4.93;2.50;;;10.40;74.60;;;;;;10416188;28;20225;-74
2023/04/14 21:20:47;;;;;;;7.23;2.60;;;10.40;74.10;;;;;;10417334;28;20739;-75
2023/04/14 21:25:47;;;;;;;4.37;2.50;;;10.40;74.30;;;;;;10420187;28;20221;-74
2023/04/14 21:30:49;;;;;;;6.60;3.40;;;10.20;75.00;;;;;;10425576;28;20285;-74
2023/04/14 21:35:49;;;;;;;6.50;3.53;;;10.10;80.00;;;;;;10416523;28;20746;-75
2023/04/14 21:40:50;;;;;;;5.47;3.20;;;9.90;82.80;;;;;;10419778;28;20208;-74
2023/04/14 21:45:50;;;;;;;6.43;3.10;;;9.80;84.10;;;;;;10425761;28;20614;-72
2023/04/14 21:50:51;;;;;;;6.63;3.60;;;9.60;86.20;;;;;;10429232;28;20266;-74
2023/04/14 21:55:52;;;;;;;8.23;4.13;;;9.50;87.60;;;;;;10407886;28;20224;-71
2023/04/14 22:00:52;;;;;;;7.00;3.60;;;9.40;89.30;;;;;;10427113;28;20611;-70
2023/04/14 22:05:53;;;;;;;7.37;4.03;;;9.30;90.80;;;;;;10425590;28;20212;-72
2023/04/14 22:10:54;;;;;;;6.17;3.83;;;9.20;91.60;;;;;;10420564;28;20240;-74
2023/04/14 22:15:55;;;;;;;8.00;3.90;;;9.10;92.60;;;;;;10430137;28;20287;-74
2023/04/14 22:20:56;;;;;;;6.00;3.60;;;9.00;94.30;;;;;;10427040;28;20212;-71
2023/04/14 22:25:57;;;;;;;7.13;4.47;;;9.00;95.70;;;;;;10422993;28;20323;-72
2023/04/14 22:30:57;;;;;;;7.90;4.47;;;8.90;97.20;;;;;;10426508;28;20636;-73
2023/04/14 22:36:02;;;;;;;7.03;4.30;;;8.80;99.90;;;;;;10424119;28;20275;-73
2023/04/14 22:41:03;;;;;;;4.40;3.40;;;8.80;99.90;;;;;;10419810;28;20213;-72
2023/04/14 22:46:03;;;;;;;6.80;3.70;;;8.60;99.90;;;;;;10419925;28;20220;-73
2023/04/14 22:51:04;;;;;;;7.73;3.70;;;8.60;99.90;;;;;;10422566;28;20238;-74
2023/04/14 22:56:05;;;;;;;5.70;3.43;;;8.40;99.90;;;;;;10419792;28;20713;-72
2023/04/14 23:01:07;;;;;;;6.60;3.10;;;8.30;99.90;;;;;;10423449;28;20645;-72
2023/04/14 23:06:08;;;;;;;5.37;3.30;;;8.20;99.90;;;;;;10430554;28;20219;-73
2023/04/14 23:11:09;;;;;;;6.50;3.33;;;8.20;99.90;;;;;;10429261;28;20232;-71
2023/04/14 23:16:09;;;;;;;7.10;3.80;;;8.10;99.90;;;;;;10425712;28;20258;-72
2023/04/14 23:21:10;;;;;;;5.67;3.47;;;7.90;99.90;;;;;;10429301;28;20594;-72
2023/04/14 23:26:11;;;;;;;7.70;3.23;;;7.90;99.90;;;;;;10429798;28;20303;-73
2023/04/14 23:31:11;;;;;;;7.40;3.80;;;7.80;99.90;;;;;;10423497;28;20238;-72
2023/04/14 23:36:12;;;;;;;5.93;3.40;;;7.80;99.90;;;;;;10435110;28;20330;-73
2023/04/14 23:41:16;;;;;;;7.53;3.77;;;7.80;99.90;;;;;;10425612;28;20217;-72
2023/04/14 23:46:17;;;;;;;5.77;3.27;;;7.80;99.90;;;;;;10435074;28;20322;-73
2023/04/14 23:51:18;;;;;;;7.00;3.63;;;7.80;99.90;;;;;;10420314;28;20244;-71
2023/04/14 23:56:18;;;;;;;7.03;3.63;;;7.70;99.90;;;;;;10427011;28;20266;-72
